Terminal Aerodrome Forecast
Issued by NWS Melbourne, FL

Home | Current Version | Previous Version | Text Only | Print | Product List | Glossary On
Versions: 1 2 3 4 5 6 7 8 9 10 11 12
395
FTUS42 KMLB 122340
TAFDAB
TAF
KDAB 122340Z 1300/1324 27012KT P6SM SKC
     FM130400 31007KT P6SM SKC
     FM131700 29007KT P6SM SKC=

USA.gov is the U.S. government's official web portal to all federal, state and local government web resources and services.